Main page
METAR-TAF:

METAR-TAF

Airports :

St. Gallen–Altenrhein Airport

St. Gallen, Switzerland

latitude: 47-29-06N, longitude: 009-33-43E, elevation: 398 m

Current weather observation

The report was made 46 minutes ago, at 00:20 UTC
Wind 1 kt from variable directions
Temperature 17°C
Humidity 94%
Pressure 1014 hPa
Visibility 10 km or more
no clouds below 1500 m and no cumulonimbus

METAR: LSZR 250020Z AUTO VRB01KT CAVOK 17/16 Q1014

Time: 03:06 (01:06 UTC)

Forecast

The report was made 10 hours and 41 minutes ago, at 14:25 UTC
Forecast valid from 24 at 15 UTC to 24 at 24 UTC
Wind 8 kt from the Northeast
Visibility 10 km or more
no clouds below 1500 m and no cumulonimbus

TAF: LSZR 241425Z 2415/2424 05008KT CAVOK

Weather observations and forecasts of more than 4000 airports (METAR and TAF reports).

The available stations are represented by yellow and red dots on the map.

Hover mouse over dot to see the name of the station.

Then click to see weather observations and forecasts.

To change the map : click on the green buttons with a black cross to zoom in, on the green button with a dash to zoom out, or on the green arrows for adjacent maps.


METAR-TAF: